createdAt,value
2023-02-24T00:00:31.768Z,21.52
2023-02-24T00:02:58.565Z,20.00
2023-02-24T00:05:24.503Z,23.02
2023-02-24T00:07:50.266Z,21.77
2023-02-24T00:10:20.322Z,19.48
2023-02-24T00:12:46.522Z,20.25
2023-02-24T00:15:14.343Z,20.63
2023-02-24T00:17:40.538Z,21.02
2023-02-24T00:20:07.053Z,19.77
2023-02-24T00:22:32.789Z,20.15
2023-02-24T00:25:01.869Z,19.35
2023-02-24T00:27:27.772Z,20.95
2023-02-24T00:29:53.576Z,18.80
2023-02-24T00:32:19.466Z,20.90
2023-02-24T00:34:47.482Z,18.80
2023-02-24T00:37:14.611Z,20.23
2023-02-24T00:39:40.683Z,21.08
2023-02-24T00:42:07.155Z,19.33
2023-02-24T00:44:34.373Z,20.00
2023-02-24T00:47:04.255Z,20.20
2023-02-24T00:49:30.392Z,11.57
2023-02-24T00:51:56.320Z,11.13
2023-02-24T00:54:26.432Z,10.75
2023-02-24T00:56:52.530Z,8.27
2023-02-24T00:59:18.308Z,8.25
2023-02-24T01:01:49.172Z,8.25
2023-02-24T01:04:15.389Z,7.38
2023-02-24T01:06:42.818Z,6.45
2023-02-24T01:09:15.219Z,6.00
2023-02-24T01:12:00.385Z,4.22
2023-02-24T01:14:27.683Z,5.22
2023-02-24T01:16:53.486Z,4.85
2023-02-24T01:19:20.510Z,4.70
2023-02-24T01:21:46.576Z,5.97
2023-02-24T01:24:14.769Z,4.45
2023-02-24T01:26:41.185Z,4.78
2023-02-24T01:29:09.119Z,4.68
2023-02-24T01:31:36.236Z,3.95
2023-02-24T01:34:05.338Z,3.47
2023-02-24T01:36:32.126Z,3.85
2023-02-24T01:38:58.608Z,4.38
2023-02-24T01:41:27.223Z,3.33
2023-02-24T01:44:05.501Z,4.65
2023-02-24T01:46:32.515Z,4.82
2023-02-24T01:49:02.158Z,3.92
2023-02-24T01:51:30.345Z,3.85
2023-02-24T01:53:56.116Z,3.25
2023-02-24T01:56:21.896Z,3.33
2023-02-24T01:58:49.246Z,2.92
2023-02-24T02:01:16.172Z,2.65
2023-02-24T02:03:42.172Z,2.70
2023-02-24T02:06:10.276Z,3.95
2023-02-24T02:08:37.945Z,3.63
2023-02-24T02:11:06.291Z,3.40
2023-02-24T02:13:35.060Z,3.25
2023-02-24T02:16:02.185Z,3.20
2023-02-24T02:18:35.739Z,3.22
2023-02-24T02:21:24.225Z,2.55
2023-02-24T02:24:14.680Z,3.22
2023-02-24T02:26:57.361Z,3.10
2023-02-24T02:29:45.200Z,2.13
2023-02-24T02:32:30.752Z,3.65
2023-02-24T02:35:03.241Z,2.65
2023-02-24T02:37:42.376Z,2.67
2023-02-24T02:40:21.050Z,3.17
2023-02-24T02:42:50.584Z,4.28
2023-02-24T02:45:34.804Z,2.80
2023-02-24T02:48:05.685Z,3.15
2023-02-24T02:50:38.124Z,2.78
2023-02-24T02:53:07.888Z,1.95
2023-02-24T02:55:47.611Z,2.30
2023-02-24T02:58:14.868Z,2.53
2023-02-24T03:00:49.385Z,2.10
2023-02-24T03:03:17.059Z,2.80
2023-02-24T03:05:56.535Z,2.42
2023-02-24T03:08:25.181Z,3.42
2023-02-24T03:10:52.725Z,2.85
2023-02-24T03:13:21.669Z,2.60
2023-02-24T03:15:49.497Z,3.90
2023-02-24T03:18:19.572Z,4.82
2023-02-24T03:20:51.062Z,3.33
2023-02-24T03:23:25.107Z,2.50
2023-02-24T03:25:53.070Z,2.53
2023-02-24T03:28:22.735Z,2.17
2023-02-24T03:30:53.939Z,2.47
2023-02-24T03:33:23.608Z,3.53
2023-02-24T03:35:51.540Z,2.15
2023-02-24T03:38:18.104Z,2.67
2023-02-24T03:40:44.485Z,2.35
2023-02-24T03:43:19.152Z,2.83
2023-02-24T03:45:46.049Z,1.98
2023-02-24T03:48:11.940Z,1.90
2023-02-24T03:50:38.923Z,2.40
2023-02-24T03:53:23.555Z,2.80
2023-02-24T03:56:12.587Z,1.88
2023-02-24T03:58:46.340Z,2.05
2023-02-24T04:01:30.372Z,2.28
2023-02-24T04:04:06.772Z,3.78
2023-02-24T04:06:32.472Z,5.00
2023-02-24T04:09:17.089Z,1.90
2023-02-24T04:11:54.630Z,3.03
2023-02-24T04:14:52.564Z,2.97
2023-02-24T04:17:18.704Z,2.13
2023-02-24T04:19:47.296Z,2.75
2023-02-24T04:22:14.798Z,3.58
2023-02-24T04:24:40.979Z,2.83
2023-02-24T04:27:10.715Z,3.33
2023-02-24T04:29:40.643Z,2.33
2023-02-24T04:32:07.996Z,2.28
2023-02-24T04:34:34.440Z,2.17
2023-02-24T04:37:01.625Z,2.72
2023-02-24T04:39:28.404Z,2.60
2023-02-24T04:41:54.133Z,1.50
2023-02-24T04:44:20.854Z,2.00
2023-02-24T04:46:47.095Z,1.95
2023-02-24T04:49:12.846Z,1.90
2023-02-24T04:51:41.792Z,2.15
2023-02-24T04:54:08.700Z,1.67
2023-02-24T04:56:35.637Z,2.40
2023-02-24T04:59:02.019Z,1.20
2023-02-24T05:01:28.481Z,2.03
2023-02-24T05:03:54.415Z,2.70
2023-02-24T05:06:20.185Z,1.67
2023-02-24T05:08:46.001Z,1.42
2023-02-24T05:11:18.533Z,2.42
2023-02-24T05:13:47.478Z,2.63
2023-02-24T05:16:14.805Z,1.65
2023-02-24T05:18:42.049Z,3.15
2023-02-24T05:21:27.482Z,2.83
2023-02-24T05:23:54.010Z,2.17
2023-02-24T05:26:21.049Z,1.60
2023-02-24T05:28:48.625Z,2.20
2023-02-24T05:31:16.888Z,1.88
2023-02-24T05:33:48.617Z,1.55
2023-02-24T05:36:16.713Z,1.33
2023-02-24T05:38:43.559Z,1.90
2023-02-24T05:41:16.324Z,1.67
2023-02-24T05:43:47.490Z,2.20
2023-02-24T05:46:14.490Z,2.10
2023-02-24T05:48:40.551Z,2.42
2023-02-24T05:51:07.749Z,2.13
2023-02-24T05:53:34.528Z,1.63
2023-02-24T05:56:01.182Z,1.65
2023-02-24T05:58:28.532Z,1.67
2023-02-24T06:00:55.410Z,1.88
2023-02-24T06:03:30.232Z,1.42
2023-02-24T06:05:58.554Z,2.20
2023-02-24T06:08:25.344Z,2.03
2023-02-24T06:10:51.219Z,1.55
2023-02-24T06:13:17.373Z,1.92
2023-02-24T06:15:49.874Z,1.90
2023-02-24T06:18:16.936Z,2.75
2023-02-24T06:20:45.280Z,1.52
2023-02-24T06:23:11.035Z,2.38
2023-02-24T06:25:38.448Z,1.23
2023-02-24T06:28:04.336Z,2.42
2023-02-24T06:30:32.285Z,1.42
2023-02-24T06:32:58.314Z,1.30
2023-02-24T06:35:27.221Z,1.48
2023-02-24T06:37:55.251Z,1.40
2023-02-24T06:40:21.237Z,1.10
2023-02-24T06:42:48.222Z,1.77
2023-02-24T06:45:14.661Z,1.67
2023-02-24T06:47:42.296Z,1.50
2023-02-24T06:50:09.271Z,2.17
2023-02-24T06:52:36.046Z,2.30
2023-02-24T06:55:06.569Z,1.45
2023-02-24T06:57:33.786Z,1.30
2023-02-24T07:00:16.436Z,2.65
2023-02-24T07:02:42.428Z,2.20
2023-02-24T07:05:13.855Z,1.77
2023-02-24T07:07:45.379Z,2.67
2023-02-24T07:10:12.709Z,1.70
2023-02-24T07:12:44.957Z,2.40
2023-02-24T07:15:13.192Z,2.08
2023-02-24T07:17:38.988Z,1.70
2023-02-24T07:20:11.123Z,1.77
2023-02-24T07:22:37.628Z,1.83
2023-02-24T07:25:04.090Z,1.77
2023-02-24T07:27:30.071Z,1.88
2023-02-24T07:29:56.113Z,1.70
2023-02-24T07:32:22.341Z,1.77
2023-02-24T07:34:51.553Z,2.53
2023-02-24T07:37:19.730Z,1.65
2023-02-24T07:39:46.824Z,1.27
2023-02-24T07:42:13.176Z,1.40
2023-02-24T07:44:39.128Z,1.92
2023-02-24T07:47:07.354Z,1.65
2023-02-24T07:49:33.695Z,2.53
2023-02-24T07:51:59.748Z,1.65
2023-02-24T07:54:29.291Z,1.60
2023-02-24T07:56:56.065Z,2.10
2023-02-24T07:59:26.768Z,2.03
2023-02-24T08:01:55.062Z,1.98
2023-02-24T08:04:28.470Z,2.53
2023-02-24T08:07:01.836Z,2.08
2023-02-24T08:09:46.318Z,1.88
2023-02-24T08:12:17.330Z,2.53
2023-02-24T08:17:11.125Z,1.58
2023-02-24T08:19:40.047Z,2.08
2023-02-24T08:22:19.088Z,1.90
2023-02-24T08:24:50.332Z,1.80
2023-02-24T08:27:20.319Z,1.98
2023-02-24T08:30:01.526Z,2.17
2023-02-24T08:32:33.147Z,1.67
2023-02-24T08:35:18.830Z,2.88
2023-02-24T08:37:50.293Z,1.80
2023-02-24T08:40:51.473Z,1.50
2023-02-24T08:43:34.340Z,1.65
2023-02-24T08:46:12.564Z,1.38
2023-02-24T08:48:44.390Z,2.22
2023-02-24T08:51:11.910Z,1.52
2023-02-24T08:53:41.206Z,2.65
2023-02-24T08:56:11.086Z,2.15
2023-02-24T08:58:40.536Z,1.47
2023-02-24T09:01:18.274Z,1.73
2023-02-24T09:04:07.091Z,1.55
2023-02-24T09:06:39.094Z,3.33
2023-02-24T09:09:17.071Z,1.58
2023-02-24T09:11:47.035Z,1.45
2023-02-24T09:14:26.473Z,2.00
2023-02-24T09:17:02.662Z,2.08
2023-02-24T09:20:00.841Z,1.55
2023-02-24T09:22:31.483Z,1.35
2023-02-24T09:25:19.141Z,1.63
2023-02-24T09:27:51.842Z,1.40
2023-02-24T09:30:35.116Z,2.50
2023-02-24T09:33:08.433Z,1.63
2023-02-24T09:36:03.443Z,2.20
2023-02-24T09:38:48.609Z,1.75
2023-02-24T09:41:30.691Z,1.95
2023-02-24T09:44:03.919Z,2.03
2023-02-24T09:46:40.239Z,1.88
2023-02-24T09:49:15.096Z,1.70
2023-02-24T09:51:43.814Z,1.50
2023-02-24T09:54:14.828Z,1.60
2023-02-24T09:56:48.842Z,1.48
2023-02-24T09:59:25.958Z,1.30
2023-02-24T10:04:48.421Z,1.40
2023-02-24T10:07:28.336Z,1.20
2023-02-24T10:10:20.345Z,1.83
2023-02-24T10:12:51.943Z,0.98
2023-02-24T10:15:44.070Z,1.63
2023-02-24T10:18:26.515Z,1.15
2023-02-24T10:20:56.254Z,1.15
2023-02-24T10:23:32.577Z,1.92
2023-02-24T10:26:07.189Z,1.08
2023-02-24T10:28:38.796Z,1.50
2023-02-24T10:31:24.394Z,1.10
2023-02-24T10:33:59.091Z,1.95
2023-02-24T10:36:52.047Z,1.42
2023-02-24T10:39:25.441Z,1.58
2023-02-24T10:41:57.760Z,1.38
2023-02-24T10:44:35.356Z,1.30
2023-02-24T10:47:10.713Z,1.17
2023-02-24T10:49:56.157Z,2.55
2023-02-24T10:52:41.957Z,1.58
2023-02-24T10:55:27.706Z,1.67
2023-02-24T10:58:15.296Z,1.05
2023-02-24T11:01:02.173Z,1.88
2023-02-24T11:03:41.470Z,1.35
2023-02-24T11:06:41.360Z,1.27
2023-02-24T11:09:31.614Z,1.42
2023-02-24T11:12:17.986Z,1.15
2023-02-24T11:15:13.074Z,1.17
2023-02-24T11:17:47.405Z,1.30
2023-02-24T11:20:47.438Z,2.13
2023-02-24T11:23:17.212Z,1.27
2023-02-24T11:25:47.194Z,1.40
2023-02-24T11:28:19.561Z,1.75
2023-02-24T11:30:53.494Z,1.10
2023-02-24T11:33:42.512Z,1.23
2023-02-24T11:36:09.179Z,0.95
2023-02-24T11:38:53.860Z,1.70
2023-02-24T11:41:25.492Z,1.40
2023-02-24T11:44:00.131Z,2.00
2023-02-24T11:46:57.114Z,1.08
2023-02-24T11:49:38.318Z,1.02
2023-02-24T11:52:08.648Z,1.10
2023-02-24T11:54:41.097Z,1.30
2023-02-24T11:57:12.754Z,1.05
2023-02-24T11:59:50.915Z,1.23
2023-02-24T12:02:16.696Z,1.85
2023-02-24T12:05:06.035Z,1.20
2023-02-24T12:07:35.075Z,0.70
2023-02-24T12:10:15.932Z,1.00
2023-02-24T12:12:49.012Z,1.17
2023-02-24T12:15:26.429Z,1.80
2023-02-24T12:18:05.116Z,1.10
2023-02-24T12:20:40.102Z,1.30
2023-02-24T12:23:17.812Z,1.48
2023-02-24T12:26:06.265Z,1.00
2023-02-24T12:28:38.448Z,1.05
2023-02-24T12:31:31.455Z,1.38
2023-02-24T12:34:24.225Z,1.65
2023-02-24T12:39:51.396Z,1.60
2023-02-24T12:42:40.841Z,2.00
2023-02-24T12:45:15.674Z,2.30
2023-02-24T12:47:51.247Z,1.80
2023-02-24T12:50:37.525Z,1.98
2023-02-24T12:53:10.786Z,1.67
2023-02-24T12:55:56.872Z,1.70
2023-02-24T12:58:27.969Z,2.45
2023-02-24T13:01:14.258Z,1.92
2023-02-24T13:03:43.208Z,1.60
2023-02-24T13:06:21.339Z,2.50
2023-02-24T13:11:53.179Z,1.40
2023-02-24T13:17:23.748Z,1.52
2023-02-24T13:20:10.198Z,2.00
2023-02-24T13:25:40.793Z,1.50
2023-02-24T13:28:32.663Z,1.42
2023-02-24T13:36:54.432Z,1.15
2023-02-24T13:39:27.783Z,2.05
2023-02-24T13:42:04.588Z,1.33
2023-02-24T13:53:12.484Z,1.55
2023-02-24T13:55:52.037Z,1.40
2023-02-24T13:58:37.407Z,3.00
2023-02-24T14:44:48.562Z,1.17
2023-02-24T14:56:26.702Z,1.37
2023-02-24T15:01:44.269Z,1.17
2023-02-24T15:09:48.794Z,1.00
2023-02-24T15:12:26.784Z,1.17
2023-02-24T15:14:58.676Z,1.15
2023-02-24T15:17:29.564Z,1.30
2023-02-24T15:25:45.310Z,1.10
2023-02-24T15:28:31.521Z,1.25
2023-02-24T15:34:15.527Z,1.30
2023-02-24T15:42:33.188Z,1.40
2023-02-24T15:45:14.665Z,1.17
2023-02-24T16:02:16.824Z,2.83
2023-02-24T16:04:44.976Z,2.25
2023-02-24T16:07:18.389Z,1.80
2023-02-24T16:12:33.199Z,1.92
2023-02-24T16:15:05.545Z,2.53
2023-02-24T16:26:56.403Z,2.85
2023-02-24T16:29:24.464Z,2.63
2023-02-24T16:31:51.867Z,2.65
2023-02-24T16:46:03.536Z,3.30
2023-02-24T16:51:25.715Z,3.70
2023-02-24T16:56:47.681Z,3.72
2023-02-24T16:59:19.042Z,4.80
2023-02-24T17:01:49.133Z,3.90
2023-02-24T17:04:23.375Z,4.38
2023-02-24T17:15:25.491Z,4.72
2023-02-24T17:20:37.290Z,5.53
2023-02-24T17:23:31.514Z,5.03
2023-02-24T17:26:00.497Z,5.97
2023-02-24T17:28:26.738Z,5.78
2023-02-24T17:30:53.501Z,6.28
2023-02-24T17:33:19.990Z,6.22
2023-02-24T17:38:34.541Z,6.43
2023-02-24T17:41:06.552Z,6.72
2023-02-24T17:43:36.219Z,7.00
2023-02-24T18:00:26.554Z,6.97
2023-02-24T18:02:53.174Z,6.95
2023-02-24T18:05:23.983Z,7.50
2023-02-24T18:10:15.850Z,8.13
2023-02-24T18:12:51.252Z,7.55
2023-02-24T18:15:38.406Z,8.23
2023-02-24T18:20:49.932Z,7.35
2023-02-24T18:23:15.995Z,7.80
2023-02-24T18:25:42.638Z,8.25
2023-02-24T18:28:34.336Z,8.38
2023-02-24T18:34:03.510Z,7.75
2023-02-24T18:36:29.737Z,7.57
2023-02-24T18:38:56.864Z,8.70
2023-02-24T18:41:27.432Z,7.60
2023-02-24T18:43:54.935Z,8.23
2023-02-24T18:46:21.790Z,8.40
2023-02-24T18:49:00.841Z,8.27
2023-02-24T18:51:29.264Z,8.70
2023-02-24T18:53:57.502Z,9.35
2023-02-24T19:01:45.912Z,7.80
2023-02-24T19:04:13.399Z,9.48
2023-02-24T19:06:41.894Z,8.50
2023-02-24T19:09:09.943Z,8.85
2023-02-24T19:11:36.835Z,8.82
2023-02-24T19:14:07.960Z,9.02
2023-02-24T19:16:34.629Z,8.55
2023-02-24T19:19:22.979Z,9.35
2023-02-24T19:21:49.724Z,8.80
2023-02-24T19:24:16.757Z,8.80
2023-02-24T19:26:43.827Z,7.68
2023-02-24T19:29:10.386Z,9.10
2023-02-24T19:31:37.271Z,9.23
2023-02-24T19:34:06.997Z,8.10
2023-02-24T19:42:02.627Z,9.27
2023-02-24T19:44:28.850Z,8.35
2023-02-24T19:46:55.468Z,9.73
2023-02-24T19:49:21.690Z,9.88
2023-02-24T19:51:48.473Z,9.98
2023-02-24T19:54:15.553Z,10.15
2023-02-24T19:56:41.677Z,10.60
2023-02-24T19:59:07.550Z,10.82
2023-02-24T20:01:33.667Z,8.75
2023-02-24T20:04:00.143Z,9.45
2023-02-24T20:06:28.856Z,10.80
2023-02-24T20:08:56.370Z,11.18
2023-02-24T20:11:28.686Z,10.10
2023-02-24T20:13:55.451Z,10.95
2023-02-24T20:16:24.524Z,11.00
2023-02-24T20:18:55.550Z,10.57
2023-02-24T20:21:22.117Z,10.95
2023-02-24T20:24:02.593Z,10.07
2023-02-24T20:26:33.395Z,11.27
2023-02-24T20:39:36.024Z,10.77
2023-02-24T20:42:01.829Z,12.38
2023-02-24T20:44:27.805Z,11.70
2023-02-24T20:46:55.835Z,11.65
2023-02-24T20:49:27.101Z,12.77
2023-02-24T20:51:53.305Z,11.45
2023-02-24T20:54:19.666Z,12.65
2023-02-24T20:56:46.011Z,12.00
2023-02-24T20:59:14.596Z,12.70
2023-02-24T21:01:40.712Z,11.43
2023-02-24T21:04:09.033Z,12.85
2023-02-24T21:06:35.816Z,11.70
2023-02-24T21:09:03.564Z,11.18
2023-02-24T21:11:29.769Z,13.05
2023-02-24T21:13:55.610Z,12.65
2023-02-24T21:16:22.754Z,12.55
2023-02-24T21:18:49.325Z,11.48
2023-02-24T21:21:16.338Z,12.43
2023-02-24T21:23:43.679Z,11.02
2023-02-24T21:26:09.870Z,12.15
2023-02-24T21:28:38.148Z,12.57
2023-02-24T21:31:12.177Z,10.82
2023-02-24T21:33:39.848Z,13.13
2023-02-24T21:36:07.121Z,11.57
2023-02-24T21:38:33.852Z,10.73
2023-02-24T21:41:00.297Z,11.40
2023-02-24T21:43:26.168Z,11.38
2023-02-24T21:45:52.591Z,10.95
2023-02-24T21:48:18.608Z,10.50
2023-02-24T21:50:44.592Z,10.23
2023-02-24T21:53:14.159Z,9.98
2023-02-24T21:55:40.124Z,10.18
2023-02-24T21:58:12.004Z,9.75
2023-02-24T22:00:38.073Z,10.43
2023-02-24T22:03:04.098Z,10.05
2023-02-24T22:05:29.987Z,9.15
2023-02-24T22:07:56.432Z,8.27
2023-02-24T22:10:22.483Z,8.25
2023-02-24T22:12:53.048Z,9.70
2023-02-24T22:15:18.873Z,8.68
2023-02-24T22:17:44.747Z,7.22
2023-02-24T22:20:12.611Z,6.78
2023-02-24T22:22:40.779Z,8.40
2023-02-24T22:25:07.467Z,6.25
2023-02-24T22:27:33.469Z,6.85
2023-02-24T22:29:59.376Z,6.57
2023-02-24T22:32:25.790Z,5.15
2023-02-24T22:34:51.619Z,5.55
2023-02-24T22:37:17.512Z,5.18
2023-02-24T22:39:43.318Z,5.53
2023-02-24T22:42:11.209Z,5.15
2023-02-24T22:44:37.392Z,3.97
2023-02-24T22:47:06.946Z,4.55
2023-02-24T22:49:32.971Z,3.75
2023-02-24T22:51:58.782Z,3.80
2023-02-24T22:54:24.527Z,3.15
2023-02-24T22:56:55.992Z,2.97
2023-02-24T22:59:22.377Z,2.70
2023-02-24T23:01:48.215Z,3.80
2023-02-24T23:04:15.515Z,3.28
2023-02-24T23:06:42.813Z,2.38
2023-02-24T23:09:09.028Z,1.98
2023-02-24T23:11:40.606Z,2.47
2023-02-24T23:14:10.122Z,2.20
2023-02-24T23:16:36.605Z,3.35
2023-02-24T23:19:07.483Z,3.13
2023-02-24T23:21:37.499Z,2.40
2023-02-24T23:24:04.810Z,1.90
2023-02-24T23:26:34.913Z,2.60
2023-02-24T23:29:01.351Z,3.70
2023-02-24T23:31:28.149Z,3.35
2023-02-24T23:33:54.303Z,2.00
2023-02-24T23:36:21.334Z,1.73
2023-02-24T23:38:47.602Z,2.20
2023-02-24T23:41:13.700Z,2.67
2023-02-24T23:43:39.622Z,2.97
2023-02-24T23:46:06.277Z,2.33
2023-02-24T23:48:32.181Z,3.20
2023-02-24T23:50:57.923Z,3.13
2023-02-24T23:53:24.057Z,3.97
2023-02-24T23:55:49.835Z,2.67
2023-02-24T23:58:16.221Z,3.00
